Time;durP1;ratioP1;P1;durP2;ratioP2;P2;SDS_P1;SDS_P2;PMS_P1;PMS_P2;Temp;Humidity;BMP_temperature;BMP_pressure;BME280_temperature;BME280_humidity;BME280_pressure;Samples;Min_cycle;Max_cycle;Signal;HPM_P1;HPM_P2
2023/10/15 00:00:23;;;;;;;2.87;1.03;;;8.90;99.90;;;;;;5016749;28;20443;-85
2023/10/15 00:02:51;;;;;;;1.47;0.57;;;8.90;99.90;;;;;;5016310;28;20529;-85
2023/10/15 00:05:20;;;;;;;0.53;0.50;;;8.90;99.90;;;;;;5015865;28;20949;-86
2023/10/15 00:07:48;;;;;;;0.30;0.30;;;8.90;99.90;;;;;;5016510;28;20439;-85
2023/10/15 00:10:16;;;;;;;2.20;0.83;;;8.90;99.90;;;;;;5017356;28;20812;-86
2023/10/15 00:12:44;;;;;;;0.63;0.50;;;8.90;99.90;;;;;;5015881;28;20830;-86
2023/10/15 00:15:15;;;;;;;8.87;0.53;;;8.90;99.90;;;;;;5015529;28;20447;-86
2023/10/15 00:17:43;;;;;;;0.40;0.40;;;8.90;99.90;;;;;;5016136;28;20534;-86
2023/10/15 00:20:14;;;;;;;0.70;0.40;;;8.90;99.90;;;;;;5015650;28;20940;-85
2023/10/15 00:22:42;;;;;;;0.57;0.40;;;8.90;99.90;;;;;;5015674;28;20483;-86
2023/10/15 00:25:12;;;;;;;2.07;0.53;;;9.00;99.90;;;;;;5016202;28;20538;-86
2023/10/15 00:27:39;;;;;;;6.80;0.60;;;9.00;99.90;;;;;;5015989;28;20455;-85
2023/10/15 00:30:12;;;;;;;0.80;0.57;;;9.00;99.90;;;;;;5016129;28;20451;-86
2023/10/15 00:32:42;;;;;;;1.60;0.57;;;9.10;99.90;;;;;;5015836;28;20463;-86
2023/10/15 00:35:09;;;;;;;0.40;0.30;;;9.00;99.90;;;;;;5015316;28;20475;-86
2023/10/15 00:37:40;;;;;;;1.60;0.50;;;9.10;99.90;;;;;;5015630;28;21006;-86
2023/10/15 00:40:16;;;;;;;0.30;0.30;;;9.10;99.90;;;;;;5015602;28;20440;-86
2023/10/15 00:42:44;;;;;;;2.00;0.50;;;9.00;99.90;;;;;;5015508;28;20578;-86
2023/10/15 00:45:11;;;;;;;0.60;0.30;;;9.00;99.90;;;;;;5015851;28;20460;-86
2023/10/15 00:47:38;;;;;;;0.40;0.30;;;9.00;99.90;;;;;;5016173;28;20447;-86
2023/10/15 00:50:09;;;;;;;1.27;0.40;;;9.00;99.90;;;;;;5015096;28;20444;-86
2023/10/15 00:52:38;;;;;;;0.50;0.30;;;9.00;99.90;;;;;;5015238;28;20471;-86
2023/10/15 00:55:07;;;;;;;0.63;0.40;;;9.00;99.90;;;;;;5015546;28;20428;-86
2023/10/15 00:57:42;;;;;;;0.40;0.40;;;9.10;99.90;;;;;;5015397;28;20474;-86
2023/10/15 01:00:36;;;;;;;1.33;0.63;;;9.10;99.90;;;;;;5014790;28;20439;-86
2023/10/15 01:03:02;;;;;;;7.43;0.50;;;9.00;99.90;;;;;;5000267;28;20868;-86
2023/10/15 01:05:34;;;;;;;0.60;0.43;;;9.40;99.90;;;;;;5014820;28;20440;-86
2023/10/15 01:08:04;;;;;;;3.20;0.87;;;9.10;99.90;;;;;;5015893;28;20493;-86
2023/10/15 01:10:36;;;;;;;0.77;0.50;;;9.00;99.90;;;;;;5015199;28;20432;-85
2023/10/15 01:13:12;;;;;;;2.20;0.53;;;9.00;99.90;;;;;;5014993;28;20878;-86
2023/10/15 01:15:42;;;;;;;0.67;0.33;;;9.00;99.90;;;;;;5015138;28;20435;-86
2023/10/15 01:18:10;;;;;;;1.23;0.50;;;8.90;99.90;;;;;;5015145;28;20444;-86
2023/10/15 01:20:42;;;;;;;0.40;0.40;;;8.90;99.90;;;;;;5014450;28;20490;-86
2023/10/15 01:23:09;;;;;;;0.30;0.30;;;8.80;99.90;;;;;;5015014;28;20464;-86
2023/10/15 01:25:46;;;;;;;0.90;0.40;;;8.80;99.90;;;;;;5014134;28;20446;-86
2023/10/15 01:28:13;;;;;;;5.00;0.60;;;8.70;99.90;;;;;;5014725;28;20458;-86
2023/10/15 01:30:41;;;;;;;0.90;0.90;;;8.80;99.90;;;;;;5014693;28;20455;-86
2023/10/15 01:33:10;;;;;;;0.30;0.30;;;8.80;99.90;;;;;;5014333;28;20474;-86
2023/10/15 01:35:38;;;;;;;0.50;0.40;;;8.80;99.90;;;;;;5014756;28;20968;-86
2023/10/15 01:38:10;;;;;;;0.50;0.40;;;8.80;99.90;;;;;;5014453;28;20451;-86
2023/10/15 01:40:40;;;;;;;0.50;0.33;;;8.70;99.90;;;;;;5014514;28;20444;-86
2023/10/15 01:43:12;;;;;;;0.40;0.40;;;8.80;99.90;;;;;;5014271;28;20518;-86
2023/10/15 01:45:41;;;;;;;0.50;0.40;;;8.70;99.90;;;;;;4995041;28;20523;-86
2023/10/15 01:48:18;;;;;;;2.50;0.30;;;8.60;99.90;;;;;;4995314;28;20952;-86
2023/10/15 01:50:47;;;;;;;1.30;0.40;;;8.70;99.90;;;;;;5003056;28;20506;-86
2023/10/15 01:53:15;;;;;;;0.67;0.57;;;8.70;99.90;;;;;;5014470;28;20893;-86
2023/10/15 01:55:56;;;;;;;0.80;0.33;;;8.80;99.90;;;;;;5014248;28;20448;-86
2023/10/15 01:58:31;;;;;;;0.50;0.30;;;8.80;99.90;;;;;;5014484;28;20424;-86
2023/10/15 02:01:05;;;;;;;1.23;0.50;;;8.90;99.90;;;;;;5013958;28;20443;-85
2023/10/15 02:03:32;;;;;;;1.13;0.40;;;8.90;99.90;;;;;;5014182;28;20479;-86
2023/10/15 02:06:06;;;;;;;0.70;0.53;;;9.00;99.90;;;;;;5013201;28;20995;-86
2023/10/15 02:08:34;;;;;;;0.40;0.40;;;9.00;99.90;;;;;;5014131;28;20490;-86
2023/10/15 02:11:09;;;;;;;1.37;0.40;;;9.00;99.90;;;;;;5013761;28;20948;-86
2023/10/15 02:13:40;;;;;;;0.30;0.30;;;9.10;99.90;;;;;;5014283;28;20554;-86
2023/10/15 02:16:08;;;;;;;0.87;0.70;;;9.00;99.90;;;;;;5014413;28;20440;-86
2023/10/15 02:18:36;;;;;;;2.10;0.60;;;9.10;99.90;;;;;;5014164;28;20462;-86
2023/10/15 02:21:03;;;;;;;0.50;0.50;;;9.10;99.90;;;;;;5013581;28;20874;-86
2023/10/15 02:23:32;;;;;;;0.30;0.30;;;9.10;99.90;;;;;;5014081;28;20509;-86
2023/10/15 02:25:59;;;;;;;0.40;0.40;;;9.20;99.90;;;;;;5013892;28;20451;-86
2023/10/15 02:28:31;;;;;;;0.60;0.40;;;9.20;99.90;;;;;;5013667;28;20439;-86
2023/10/15 02:31:06;;;;;;;0.40;0.40;;;9.20;99.90;;;;;;4994498;28;20437;-86
2023/10/15 02:33:32;;;;;;;0.53;0.43;;;9.20;99.90;;;;;;4994014;28;20909;-86
2023/10/15 02:35:59;;;;;;;0.40;0.30;;;9.30;99.90;;;;;;5009204;28;20443;-86
2023/10/15 02:38:26;;;;;;;0.50;0.50;;;9.30;99.90;;;;;;5013703;28;20447;-86
2023/10/15 02:41:03;;;;;;;0.30;0.30;;;9.20;99.90;;;;;;5013507;28;20447;-86
2023/10/15 02:43:32;;;;;;;0.40;0.40;;;9.20;99.90;;;;;;5014041;28;20448;-86
2023/10/15 02:46:00;;;;;;;0.40;0.40;;;9.20;99.90;;;;;;5013312;28;20444;-86
2023/10/15 02:48:31;;;;;;;0.40;0.30;;;9.20;99.90;;;;;;5013566;28;20772;-86
2023/10/15 02:51:03;;;;;;;0.40;0.40;;;9.20;99.90;;;;;;5013239;28;20932;-86
2023/10/15 02:53:34;;;;;;;0.70;0.70;;;9.20;99.90;;;;;;5013301;28;20460;-86
2023/10/15 02:56:10;;;;;;;0.30;0.30;;;9.20;99.90;;;;;;5013854;28;20431;-86
2023/10/15 02:58:39;;;;;;;0.70;0.50;;;9.20;99.90;;;;;;5013642;28;20431;-86
2023/10/15 03:01:17;;;;;;;0.70;0.40;;;9.20;99.90;;;;;;5012736;28;20447;-86
2023/10/15 03:03:48;;;;;;;9.03;0.77;;;9.20;99.90;;;;;;5012238;28;20507;-86
2023/10/15 03:06:18;;;;;;;0.40;0.40;;;9.20;99.90;;;;;;5013449;28;20448;-86
2023/10/15 03:08:47;;;;;;;0.30;0.30;;;9.20;99.90;;;;;;5013766;28;20435;-88
2023/10/15 03:11:14;;;;;;;0.37;0.30;;;9.20;99.90;;;;;;5013354;28;20444;-86
2023/10/15 03:13:53;;;;;;;3.10;0.50;;;9.50;99.90;;;;;;5012838;28;21066;-86
2023/10/15 03:16:21;;;;;;;0.30;0.30;;;9.30;99.90;;;;;;5013290;28;20534;-85
2023/10/15 03:18:52;;;;;;;0.37;0.30;;;9.30;99.90;;;;;;5012923;28;20952;-86
2023/10/15 03:21:26;;;;;;;0.37;0.37;;;9.30;99.90;;;;;;5013158;28;20444;-85
2023/10/15 03:23:55;;;;;;;0.40;0.30;;;9.30;99.90;;;;;;5012825;28;20988;-85
2023/10/15 03:26:23;;;;;;;0.60;0.40;;;9.30;99.90;;;;;;5013212;28;20459;-86
2023/10/15 03:28:58;;;;;;;0.43;0.43;;;9.30;99.90;;;;;;5013105;28;20458;-85
2023/10/15 03:31:27;;;;;;;0.40;0.40;;;9.30;99.90;;;;;;5005458;28;20450;-86
2023/10/15 03:34:13;;;;;;;2.47;0.57;;;9.30;99.90;;;;;;5012792;28;20578;-86
2023/10/15 03:36:57;;;;;;;0.50;0.30;;;9.30;99.90;;;;;;5012980;28;20439;-86
2023/10/15 03:39:53;;;;;;;0.50;0.50;;;9.30;99.90;;;;;;5013584;28;20448;-86
2023/10/15 03:42:18;;;;;;;0.70;0.43;;;9.30;99.90;;;;;;5010256;28;21061;-86
2023/10/15 03:44:47;;;;;;;0.63;0.30;;;9.30;99.90;;;;;;5013315;28;20806;-86
2023/10/15 03:47:15;;;;;;;0.37;0.30;;;10.60;99.90;;;;;;5012940;28;20514;-86
2023/10/15 03:49:44;;;;;;;2.60;0.60;;;9.30;99.90;;;;;;5015403;28;20447;-86
2023/10/15 03:52:14;;;;;;;1.67;0.40;;;9.30;99.90;;;;;;5016443;28;20478;-86
2023/10/15 03:54:47;;;;;;;7.00;0.80;;;9.30;99.90;;;;;;5016858;28;20516;-86
2023/10/15 03:57:17;;;;;;;1.33;0.43;;;9.20;99.90;;;;;;5016614;28;20467;-86
2023/10/15 03:59:51;;;;;;;1.70;0.60;;;9.20;99.90;;;;;;5016779;28;20447;-86
2023/10/15 04:02:25;;;;;;;0.40;0.40;;;9.20;99.90;;;;;;5016384;28;20502;-85
2023/10/15 04:05:00;;;;;;;1.90;0.63;;;9.20;99.90;;;;;;5016359;28;20456;-86
2023/10/15 04:07:30;;;;;;;6.27;0.60;;;9.10;99.90;;;;;;5016247;28;20505;-86
2023/10/15 04:09:57;;;;;;;0.60;0.53;;;9.00;99.90;;;;;;5016735;28;20529;-86
2023/10/15 04:12:27;;;;;;;0.30;0.30;;;9.00;99.90;;;;;;5022951;28;20463;-85
2023/10/15 04:14:56;;;;;;;0.40;0.37;;;9.10;99.90;;;;;;5019479;28;20452;-86
2023/10/15 04:17:23;;;;;;;0.30;0.30;;;9.10;99.90;;;;;;5016237;28;20466;-86
2023/10/15 04:19:50;;;;;;;0.47;0.43;;;9.10;99.90;;;;;;5016332;28;20459;-85
2023/10/15 04:22:16;;;;;;;0.40;0.40;;;9.10;99.90;;;;;;5016014;28;20490;-85
2023/10/15 04:24:46;;;;;;;0.40;0.30;;;9.10;99.90;;;;;;5015744;28;20458;-86
2023/10/15 04:27:16;;;;;;;2.50;0.40;;;9.10;99.90;;;;;;5015801;28;20833;-86
2023/10/15 04:29:50;;;;;;;0.43;0.43;;;9.20;99.90;;;;;;5016152;28;20439;-86
2023/10/15 04:32:28;;;;;;;0.40;0.30;;;9.20;99.90;;;;;;5015387;28;20451;-86
2023/10/15 04:35:01;;;;;;;0.93;0.77;;;9.20;99.90;;;;;;5015653;28;20479;-86
2023/10/15 04:37:29;;;;;;;0.57;0.57;;;9.20;99.90;;;;;;5015706;28;20472;-85
2023/10/15 04:39:56;;;;;;;0.30;0.30;;;9.20;99.90;;;;;;5015409;28;20810;-85
2023/10/15 04:42:29;;;;;;;0.50;0.50;;;9.20;99.90;;;;;;5015838;28;20533;-87
2023/10/15 04:44:59;;;;;;;0.53;0.53;;;9.20;99.90;;;;;;5015918;28;20795;-83
2023/10/15 04:47:38;;;;;;;0.50;0.40;;;9.20;99.90;;;;;;5015380;28;20532;-83
2023/10/15 04:50:14;;;;;;;0.40;0.40;;;9.10;99.90;;;;;;5015627;28;20464;-82
2023/10/15 04:52:41;;;;;;;0.30;0.30;;;9.00;99.90;;;;;;5014687;28;20494;-82
2023/10/15 04:55:10;;;;;;;0.40;0.40;;;8.90;99.90;;;;;;5015467;28;20439;-82
2023/10/15 04:57:39;;;;;;;4.93;0.80;;;8.80;99.90;;;;;;5014897;28;20966;-81
2023/10/15 05:00:07;;;;;;;0.50;0.40;;;8.80;99.90;;;;;;5015081;28;20451;-82
2023/10/15 05:02:35;;;;;;;0.30;0.30;;;8.80;99.90;;;;;;5014649;28;20511;-83
2023/10/15 05:05:05;;;;;;;1.20;0.60;;;8.80;99.90;;;;;;5014322;28;20443;-82
2023/10/15 05:07:32;;;;;;;0.70;0.70;;;8.70;99.90;;;;;;5014196;28;21027;-82
2023/10/15 05:09:59;;;;;;;2.40;0.40;;;8.70;99.90;;;;;;5014881;28;20799;-82
2023/10/15 05:12:28;;;;;;;0.50;0.50;;;8.70;99.90;;;;;;5014722;28;20468;-82
2023/10/15 05:14:55;;;;;;;1.13;0.30;;;8.70;99.90;;;;;;5013578;28;20920;-82
2023/10/15 05:17:21;;;;;;;0.37;0.37;;;8.70;99.90;;;;;;5013799;28;20455;-82
2023/10/15 05:19:54;;;;;;;0.50;0.50;;;8.60;99.90;;;;;;5014803;28;20478;-82
2023/10/15 05:22:20;;;;;;;0.40;0.40;;;8.60;99.90;;;;;;5014559;28;20483;-82
2023/10/15 05:24:47;;;;;;;1.47;0.40;;;8.60;99.90;;;;;;5014414;28;20451;-82
2023/10/15 05:27:13;;;;;;;0.40;0.40;;;8.50;99.90;;;;;;5014304;28;20447;-82
2023/10/15 05:29:40;;;;;;;1.43;0.60;;;8.50;99.90;;;;;;5014768;28;20982;-81
2023/10/15 05:32:07;;;;;;;0.80;0.70;;;8.50;99.90;;;;;;5014322;28;20197;-82
2023/10/15 05:34:33;;;;;;;1.17;0.77;;;8.50;99.90;;;;;;5014289;28;20533;-81
2023/10/15 05:37:02;;;;;;;0.93;0.40;;;8.50;99.90;;;;;;5014170;28;20452;-81
2023/10/15 05:39:29;;;;;;;0.80;0.60;;;8.50;99.90;;;;;;5014284;28;20448;-81
2023/10/15 05:41:55;;;;;;;0.60;0.60;;;8.60;99.90;;;;;;5014503;28;20474;-81
2023/10/15 05:44:22;;;;;;;0.40;0.40;;;8.50;99.90;;;;;;5014051;28;20479;-81
2023/10/15 05:46:50;;;;;;;0.40;0.40;;;8.50;99.90;;;;;;5014116;28;20478;-81
2023/10/15 05:49:17;;;;;;;0.97;0.73;;;8.50;99.90;;;;;;5014395;28;20455;-81
2023/10/15 05:51:43;;;;;;;0.60;0.60;;;8.60;99.90;;;;;;5013802;28;20573;-81
2023/10/15 05:54:12;;;;;;;0.50;0.50;;;8.60;99.90;;;;;;5014335;28;20470;-81
2023/10/15 05:56:39;;;;;;;1.20;0.43;;;8.70;99.90;;;;;;5014091;28;20455;-81
2023/10/15 05:59:07;;;;;;;0.60;0.60;;;8.70;99.90;;;;;;5013418;28;21023;-82
2023/10/15 06:01:34;;;;;;;0.70;0.47;;;8.80;99.90;;;;;;5014177;28;20551;-81
2023/10/15 06:04:02;;;;;;;0.40;0.37;;;8.80;99.90;;;;;;5013488;28;20479;-81
2023/10/15 06:06:29;;;;;;;0.90;0.90;;;8.80;99.90;;;;;;5013990;28;20799;-81
2023/10/15 06:08:59;;;;;;;0.90;0.40;;;8.80;99.90;;;;;;5013925;28;20447;-81
2023/10/15 06:11:27;;;;;;;0.40;0.40;;;8.90;99.90;;;;;;5013351;28;20510;-81
2023/10/15 06:13:54;;;;;;;1.53;0.70;;;8.90;99.90;;;;;;5013374;28;20995;-81
2023/10/15 06:16:21;;;;;;;0.40;0.40;;;9.00;99.90;;;;;;5014007;28;20452;-81
2023/10/15 06:18:47;;;;;;;1.30;0.53;;;9.00;99.90;;;;;;5013676;28;20455;-81
2023/10/15 06:21:15;;;;;;;1.67;0.80;;;9.00;99.90;;;;;;5013093;28;20523;-81
2023/10/15 06:23:42;;;;;;;0.67;0.50;;;9.00;99.90;;;;;;5013781;28;20496;-81
2023/10/15 06:26:09;;;;;;;0.50;0.50;;;9.10;99.90;;;;;;5013426;28;20451;-81
2023/10/15 06:28:37;;;;;;;0.50;0.50;;;9.10;99.90;;;;;;5013853;28;20462;-81
2023/10/15 06:31:04;;;;;;;3.00;0.70;;;9.10;99.90;;;;;;5013120;28;20483;-81
2023/10/15 06:33:31;;;;;;;4.30;0.70;;;9.10;99.90;;;;;;5012804;28;20487;-81
2023/10/15 06:35:58;;;;;;;1.07;0.60;;;9.20;99.90;;;;;;5013428;28;20439;-81
2023/10/15 06:38:24;;;;;;;0.60;0.47;;;9.20;99.90;;;;;;5013435;28;20508;-82
2023/10/15 06:40:51;;;;;;;0.50;0.50;;;9.20;99.90;;;;;;5013677;28;20448;-81
2023/10/15 06:43:18;;;;;;;0.40;0.30;;;9.20;99.90;;;;;;5013180;28;20487;-81
2023/10/15 06:45:47;;;;;;;0.70;0.60;;;9.30;99.90;;;;;;5013075;28;20451;-82
2023/10/15 06:48:13;;;;;;;4.97;0.80;;;9.30;99.90;;;;;;5013079;28;20907;-82
2023/10/15 06:50:41;;;;;;;2.50;0.70;;;9.30;99.90;;;;;;5013229;28;20821;-82
2023/10/15 06:53:07;;;;;;;0.40;0.40;;;9.40;99.90;;;;;;5012770;28;21007;-81
2023/10/15 06:55:35;;;;;;;0.50;0.50;;;9.40;99.90;;;;;;5012930;28;20456;-82
2023/10/15 06:58:02;;;;;;;0.87;0.50;;;9.40;99.90;;;;;;5013118;28;20954;-81
2023/10/15 07:00:31;;;;;;;6.40;0.57;;;9.40;99.90;;;;;;5013087;28;20470;-81
2023/10/15 07:02:59;;;;;;;0.50;0.50;;;9.40;99.90;;;;;;5012997;28;20491;-81
2023/10/15 07:05:26;;;;;;;0.50;0.50;;;9.40;99.90;;;;;;5013167;28;20451;-81
2023/10/15 07:07:56;;;;;;;0.80;0.80;;;9.40;99.90;;;;;;5012568;28;20452;-82
2023/10/15 07:10:23;;;;;;;0.50;0.50;;;9.40;99.90;;;;;;5012525;28;20531;-81
2023/10/15 07:12:51;;;;;;;0.50;0.50;;;9.40;99.90;;;;;;5012203;28;20464;-81
2023/10/15 07:15:20;;;;;;;1.60;0.70;;;9.50;99.90;;;;;;5013323;28;20443;-81
2023/10/15 07:17:49;;;;;;;0.60;0.60;;;9.50;99.90;;;;;;5012938;28;20448;-81
2023/10/15 07:20:18;;;;;;;3.80;0.97;;;9.60;99.90;;;;;;5013236;28;20452;-81
2023/10/15 07:22:48;;;;;;;0.80;0.53;;;9.60;99.90;;;;;;5012653;28;20888;-81
2023/10/15 07:25:16;;;;;;;1.20;0.90;;;9.70;99.90;;;;;;5016784;28;20845;-81
2023/10/15 07:27:45;;;;;;;0.60;0.60;;;9.60;99.90;;;;;;5016428;28;20447;-82
2023/10/15 07:30:13;;;;;;;0.57;0.57;;;9.60;99.90;;;;;;5016743;28;20489;-81
2023/10/15 07:32:40;;;;;;;0.60;0.60;;;9.60;99.90;;;;;;5016506;28;21003;-81
2023/10/15 07:35:11;;;;;;;0.60;0.60;;;9.50;99.90;;;;;;5016996;28;20479;-81
2023/10/15 07:37:40;;;;;;;5.80;1.00;;;9.50;99.90;;;;;;5016862;28;20439;-81
2023/10/15 07:40:14;;;;;;;0.80;0.80;;;9.60;99.90;;;;;;5016416;28;20482;-81
2023/10/15 07:42:41;;;;;;;0.97;0.97;;;9.50;99.90;;;;;;5015750;28;21062;-82
2023/10/15 07:45:08;;;;;;;0.90;0.90;;;9.50;99.90;;;;;;5016763;28;20443;-81
2023/10/15 07:47:37;;;;;;;2.63;0.87;;;9.50;99.90;;;;;;5016668;28;20451;-82
2023/10/15 07:50:05;;;;;;;2.27;0.80;;;9.60;99.90;;;;;;5016723;28;20455;-82
2023/10/15 07:52:31;;;;;;;2.03;0.60;;;9.50;99.90;;;;;;5016188;28;21034;-82
2023/10/15 07:55:00;;;;;;;1.13;0.63;;;9.50;99.90;;;;;;5016357;28;20465;-82
2023/10/15 07:57:27;;;;;;;1.33;0.80;;;9.70;99.90;;;;;;5016102;28;20936;-82
2023/10/15 07:59:54;;;;;;;1.80;0.77;;;9.80;99.90;;;;;;5016124;28;20804;-82
2023/10/15 08:02:23;;;;;;;0.50;0.50;;;10.00;99.90;;;;;;5016352;28;20521;-82
2023/10/15 08:04:53;;;;;;;0.40;0.40;;;10.20;99.90;;;;;;5016327;28;20491;-82
2023/10/15 08:07:20;;;;;;;1.47;1.10;;;10.40;99.90;;;;;;5015826;28;20439;-82
2023/10/15 08:09:47;;;;;;;0.83;0.50;;;10.60;99.90;;;;;;5015357;28;20963;-82
2023/10/15 08:12:15;;;;;;;0.70;0.70;;;10.90;99.90;;;;;;5015851;28;20951;-82
2023/10/15 08:14:42;;;;;;;0.60;0.60;;;11.10;99.90;;;;;;5015942;28;20447;-82
2023/10/15 08:17:11;;;;;;;0.37;0.30;;;11.10;99.90;;;;;;5016190;28;20451;-82
2023/10/15 08:19:38;;;;;;;0.43;0.43;;;11.00;99.90;;;;;;5016134;28;20542;-82
2023/10/15 08:22:05;;;;;;;2.60;0.50;;;11.20;99.90;;;;;;5015890;28;20444;-82
2023/10/15 08:24:31;;;;;;;0.50;0.50;;;11.10;99.90;;;;;;5015844;28;20494;-82
2023/10/15 08:26:59;;;;;;;0.47;0.30;;;11.00;99.90;;;;;;5015469;28;20435;-82
2023/10/15 08:29:27;;;;;;;0.70;0.70;;;11.10;99.90;;;;;;5015597;28;20469;-82
2023/10/15 08:31:54;;;;;;;0.70;0.60;;;11.40;99.90;;;;;;5010320;28;20449;-82
2023/10/15 08:34:23;;;;;;;10.50;0.80;;;11.50;99.90;;;;;;5009859;28;20479;-83
2023/10/15 08:36:49;;;;;;;0.50;0.50;;;11.70;99.90;;;;;;5014598;28;20463;-83
2023/10/15 08:39:16;;;;;;;6.07;0.63;;;11.70;99.90;;;;;;5015350;28;20991;-83
2023/10/15 08:41:45;;;;;;;3.53;0.60;;;11.70;99.90;;;;;;5013435;28;20455;-83
2023/10/15 08:44:18;;;;;;;0.60;0.47;;;11.90;99.90;;;;;;5015260;28;20537;-84
2023/10/15 08:46:48;;;;;;;1.80;0.50;;;12.10;99.90;;;;;;5014502;28;20535;-83
2023/10/15 08:49:16;;;;;;;0.73;0.73;;;12.40;99.90;;;;;;5015013;28;20995;-84
2023/10/15 08:51:44;;;;;;;0.50;0.50;;;13.00;99.90;;;;;;5015000;28;20530;-84
2023/10/15 08:54:12;;;;;;;0.80;0.50;;;13.90;99.90;;;;;;5015100;28;20559;-85
2023/10/15 08:56:39;;;;;;;0.70;0.70;;;15.10;99.90;;;;;;5015461;28;20538;-85
2023/10/15 08:59:09;;;;;;;0.70;0.40;;;16.30;99.90;;;;;;5015319;28;20447;-85
2023/10/15 09:01:37;;;;;;;2.53;0.40;;;17.60;99.90;;;;;;5014834;28;20788;-85
2023/10/15 09:04:06;;;;;;;2.10;0.50;;;17.50;99.90;;;;;;5015121;28;20489;-85
2023/10/15 09:06:34;;;;;;;1.63;0.40;;;16.60;99.90;;;;;;5014129;28;20451;-85
2023/10/15 09:09:01;;;;;;;0.70;0.43;;;15.60;99.90;;;;;;5014823;28;20857;-85
2023/10/15 09:11:28;;;;;;;1.63;0.50;;;14.80;99.90;;;;;;5014883;28;20451;-85
2023/10/15 09:13:58;;;;;;;0.40;0.30;;;14.20;99.90;;;;;;5014888;28;20468;-85
2023/10/15 09:16:28;;;;;;;0.60;0.43;;;13.50;99.90;;;;;;5014817;28;21039;-85
2023/10/15 09:18:57;;;;;;;0.60;0.57;;;13.00;99.90;;;;;;5014991;28;20455;-84
2023/10/15 09:21:26;;;;;;;0.70;0.50;;;12.60;99.90;;;;;;5014985;28;20543;-84
2023/10/15 09:23:52;;;;;;;0.53;0.50;;;12.50;99.90;;;;;;5014215;28;20483;-85
2023/10/15 09:26:19;;;;;;;0.40;0.40;;;12.30;99.90;;;;;;5008098;28;20455;-85
2023/10/15 09:28:46;;;;;;;0.80;0.77;;;12.20;99.90;;;;;;5014412;28;20456;-89
2023/10/15 09:31:13;;;;;;;1.03;0.70;;;12.20;99.90;;;;;;5014580;28;20963;-86
2023/10/15 09:33:40;;;;;;;0.57;0.57;;;12.20;99.90;;;;;;5013331;28;20560;-86
2023/10/15 09:36:08;;;;;;;1.13;0.40;;;12.10;99.90;;;;;;5014345;28;20443;-86
2023/10/15 09:38:37;;;;;;;0.50;0.50;;;12.10;99.90;;;;;;5014385;28;20944;-84
2023/10/15 09:41:05;;;;;;;0.60;0.60;;;12.00;99.90;;;;;;5014517;28;20448;-86
2023/10/15 09:43:35;;;;;;;0.50;0.50;;;12.10;99.90;;;;;;5014594;28;20506;-86
2023/10/15 09:46:03;;;;;;;0.50;0.40;;;12.30;99.90;;;;;;5013844;28;20940;-86
2023/10/15 09:48:33;;;;;;;1.20;0.63;;;12.70;99.90;;;;;;5014331;28;20518;-86
2023/10/15 09:51:01;;;;;;;2.60;0.70;;;13.10;99.90;;;;;;5014694;28;20438;-86
2023/10/15 09:53:29;;;;;;;0.97;0.50;;;13.20;99.90;;;;;;5014648;28;20462;-86
2023/10/15 09:55:58;;;;;;;3.27;0.80;;;13.10;99.90;;;;;;5014673;28;20502;-86
2023/10/15 09:58:26;;;;;;;0.47;0.40;;;12.90;99.90;;;;;;5014546;28;20439;-86
2023/10/15 10:01:08;;;;;;;0.60;0.60;;;12.60;99.90;;;;;;5014769;28;20582;-86
2023/10/15 10:04:06;;;;;;;3.97;0.60;;;12.40;99.90;;;;;;5014409;28;20472;-86
2023/10/15 10:06:59;;;;;;;0.60;0.60;;;12.50;99.90;;;;;;5014529;28;20451;-86
2023/10/15 10:09:54;;;;;;;2.40;0.80;;;12.60;99.90;;;;;;5014540;28;20434;-87
2023/10/15 10:12:36;;;;;;;0.40;0.40;;;12.70;99.90;;;;;;5014373;28;20510;-86
2023/10/15 10:15:22;;;;;;;1.70;0.50;;;12.60;99.90;;;;;;5014417;28;20442;-86
2023/10/15 10:17:50;;;;;;;0.30;0.30;;;12.40;99.90;;;;;;5014336;28;20436;-87
2023/10/15 10:20:19;;;;;;;12.60;0.93;;;12.20;99.90;;;;;;5014084;28;20544;-87
2023/10/15 10:22:58;;;;;;;1.23;0.50;;;12.10;99.90;;;;;;5015918;28;20852;-86
2023/10/15 10:25:31;;;;;;;0.53;0.40;;;13.00;99.90;;;;;;5020331;28;20475;-87
2023/10/15 10:28:07;;;;;;;0.40;0.30;;;13.60;99.90;;;;;;5014082;28;20435;-87
2023/10/15 10:30:34;;;;;;;1.93;0.57;;;13.60;99.90;;;;;;5013939;28;20438;-87
2023/10/15 10:33:03;;;;;;;0.60;0.50;;;13.40;99.90;;;;;;5013964;28;20467;-83
2023/10/15 10:35:41;;;;;;;0.83;0.33;;;14.00;99.90;;;;;;5014780;28;20431;-89
2023/10/15 10:38:10;;;;;;;0.90;0.40;;;15.10;99.90;;;;;;5015501;28;20418;-88
2023/10/15 10:40:47;;;;;;;2.00;0.60;;;16.20;99.90;;;;;;5014742;28;20451;-88
2023/10/15 10:43:20;;;;;;;0.30;0.30;;;17.20;99.90;;;;;;5014537;28;20482;-89
2023/10/15 10:45:54;;;;;;;2.30;0.40;;;17.50;99.90;;;;;;5014622;28;20909;-89
2023/10/15 10:48:25;;;;;;;0.50;0.43;;;17.00;99.90;;;;;;5014705;28;20435;-87
2023/10/15 10:51:15;;;;;;;0.40;0.40;;;16.40;99.90;;;;;;5014539;28;20458;-88
2023/10/15 10:54:15;;;;;;;0.50;0.40;;;15.40;99.90;;;;;;5013903;28;20969;-88
2023/10/15 10:57:06;;;;;;;1.10;0.43;;;14.70;99.90;;;;;;5003632;28;20514;-88
2023/10/15 10:59:36;;;;;;;2.27;0.53;;;14.00;99.90;;;;;;5018744;28;20502;-88
2023/10/15 11:02:06;;;;;;;2.77;0.60;;;13.50;99.90;;;;;;5020624;28;20454;-88
2023/10/15 11:04:33;;;;;;;0.60;0.60;;;13.50;99.90;;;;;;5020696;28;20513;-87
2023/10/15 11:07:01;;;;;;;0.37;0.30;;;13.70;99.90;;;;;;5020800;28;20447;-89
2023/10/15 11:09:28;;;;;;;1.90;0.37;;;13.80;99.90;;;;;;5020476;28;20452;-88
2023/10/15 11:11:57;;;;;;;0.40;0.40;;;14.00;99.90;;;;;;5020675;28;20509;-88
2023/10/15 11:14:24;;;;;;;0.80;0.40;;;14.30;99.90;;;;;;5020623;28;20511;-88
2023/10/15 11:16:54;;;;;;;0.63;0.47;;;14.60;99.90;;;;;;5020680;28;20457;-88
2023/10/15 11:19:22;;;;;;;0.40;0.40;;;14.50;99.90;;;;;;5021674;28;20865;-86
2023/10/15 11:21:51;;;;;;;0.30;0.30;;;14.40;99.90;;;;;;5020662;28;20455;-88
2023/10/15 11:24:19;;;;;;;0.87;0.40;;;14.00;99.90;;;;;;5020753;28;20574;-89
2023/10/15 11:26:46;;;;;;;0.83;0.40;;;13.70;99.90;;;;;;5020556;28;20439;-89
2023/10/15 11:29:15;;;;;;;0.40;0.40;;;13.40;99.90;;;;;;5020909;28;20451;-86
2023/10/15 11:31:44;;;;;;;0.40;0.30;;;13.20;99.90;;;;;;5020373;28;20968;-90
2023/10/15 11:34:13;;;;;;;0.30;0.30;;;13.00;99.90;;;;;;5020087;28;20479;-87
2023/10/15 11:36:43;;;;;;;0.40;0.30;;;12.90;99.90;;;;;;5020335;28;20454;-86
2023/10/15 11:39:18;;;;;;;2.23;0.50;;;12.80;99.90;;;;;;5020208;28;20487;-82
2023/10/15 11:41:49;;;;;;;0.57;0.40;;;12.70;99.90;;;;;;5019826;28;20439;-89
2023/10/15 11:44:17;;;;;;;0.67;0.40;;;12.60;99.90;;;;;;5020069;28;20494;-88
2023/10/15 11:46:46;;;;;;;0.40;0.30;;;12.30;99.90;;;;;;5020725;28;20452;-86
2023/10/15 11:49:14;;;;;;;2.83;0.47;;;12.60;99.90;;;;;;5020021;28;20451;-87
2023/10/15 11:51:41;;;;;;;0.37;0.30;;;12.00;99.90;;;;;;5019855;28;20944;-87
2023/10/15 11:54:09;;;;;;;0.30;0.30;;;11.90;99.90;;;;;;5020111;28;20471;-86
2023/10/15 11:56:38;;;;;;;0.40;0.30;;;11.90;99.90;;;;;;5019897;28;20450;-87
2023/10/15 11:59:05;;;;;;;1.07;0.40;;;11.60;99.90;;;;;;5019740;28;20542;-85
2023/10/15 12:01:35;;;;;;;2.10;0.60;;;11.40;99.90;;;;;;5019544;28;20963;-86
2023/10/15 12:04:02;;;;;;;0.33;0.20;;;11.20;99.90;;;;;;5019676;28;20839;-86
2023/10/15 12:06:30;;;;;;;0.40;0.37;;;11.10;99.90;;;;;;5019719;28;20489;-86
2023/10/15 12:08:58;;;;;;;1.27;0.47;;;11.10;99.90;;;;;;5018401;28;20444;-86
2023/10/15 12:11:26;;;;;;;0.40;0.40;;;11.10;99.90;;;;;;5016539;28;20535;-86
2023/10/15 12:13:53;;;;;;;0.93;0.93;;;11.10;99.90;;;;;;5016361;28;20497;-86
2023/10/15 12:16:20;;;;;;;2.37;0.80;;;11.30;99.90;;;;;;5016577;28;20452;-86
2023/10/15 12:18:46;;;;;;;0.30;0.30;;;11.30;99.90;;;;;;5016588;28;20443;-86
2023/10/15 12:21:14;;;;;;;0.40;0.30;;;11.40;99.90;;;;;;5016302;28;20821;-86
2023/10/15 12:23:43;;;;;;;0.30;0.30;;;11.40;99.90;;;;;;5016296;28;20471;-84
2023/10/15 12:26:10;;;;;;;0.40;0.30;;;11.40;99.90;;;;;;5016056;28;20943;-84
2023/10/15 12:28:44;;;;;;;0.50;0.30;;;11.50;99.90;;;;;;5016107;28;20483;-85
2023/10/15 12:31:11;;;;;;;0.80;0.43;;;11.50;99.90;;;;;;5015983;28;20435;-85
2023/10/15 12:33:38;;;;;;;0.40;0.30;;;11.50;99.90;;;;;;5015588;28;20498;-84
2023/10/15 12:36:07;;;;;;;0.30;0.30;;;11.50;99.90;;;;;;5015952;28;20494;-84
2023/10/15 12:38:34;;;;;;;1.30;0.40;;;11.40;99.90;;;;;;5015889;28;20451;-85
2023/10/15 12:41:04;;;;;;;3.40;1.80;;;11.50;99.90;;;;;;5015810;28;20443;-85
2023/10/15 12:43:31;;;;;;;0.40;0.40;;;11.40;99.90;;;;;;5018357;28;20471;-84
2023/10/15 12:45:59;;;;;;;0.40;0.30;;;11.60;99.90;;;;;;5022910;28;20487;-85
2023/10/15 12:48:27;;;;;;;0.93;0.50;;;11.70;99.90;;;;;;5015611;28;20490;-85
2023/10/15 12:50:54;;;;;;;0.50;0.40;;;12.00;99.90;;;;;;5016207;28;20462;-85
2023/10/15 12:53:21;;;;;;;0.50;0.50;;;11.70;99.90;;;;;;5015512;28;20472;-85
2023/10/15 12:55:48;;;;;;;0.70;0.40;;;11.80;99.90;;;;;;5015509;28;20439;-85
2023/10/15 12:58:17;;;;;;;0.40;0.33;;;11.80;99.90;;;;;;5015635;28;20476;-85
2023/10/15 13:00:48;;;;;;;0.37;0.30;;;11.70;99.90;;;;;;5015541;28;20447;-85
2023/10/15 13:03:15;;;;;;;1.47;0.50;;;11.60;99.90;;;;;;5015376;28;20468;-85
2023/10/15 13:05:42;;;;;;;0.63;0.57;;;11.50;99.90;;;;;;5015387;28;20490;-84